sensor_id;sensor_type;location;lat;lon;timestamp;P1;P2;P0
45440;PMS5003;31189;38.790;-77.084;2024-03-29T00:01:58;13;9;
45440;PMS5003;31189;38.790;-77.084;2024-03-29T00:04:24;15;10;
45440;PMS5003;31189;38.790;-77.084;2024-03-29T00:06:50;12;10;
45440;PMS5003;31189;38.790;-77.084;2024-03-29T00:09:15;26;11;
45440;PMS5003;31189;38.790;-77.084;2024-03-29T00:11:41;16;10;
45440;PMS5003;31189;38.790;-77.084;2024-03-29T00:14:07;13;9;
45440;PMS5003;31189;38.790;-77.084;2024-03-29T00:16:32;14;12;
45440;PMS5003;31189;38.790;-77.084;2024-03-29T00:18:57;13;11;
45440;PMS5003;31189;38.790;-77.084;2024-03-29T00:21:23;10;9;
45440;PMS5003;31189;38.790;-77.084;2024-03-29T00:23:48;11;9;
45440;PMS5003;31189;38.790;-77.084;2024-03-29T00:26:14;12;11;
45440;PMS5003;31189;38.790;-77.084;2024-03-29T00:28:40;10;9;
45440;PMS5003;31189;38.790;-77.084;2024-03-29T00:31:05;9;8;
45440;PMS5003;31189;38.790;-77.084;2024-03-29T00:33:31;15;11;
45440;PMS5003;31189;38.790;-77.084;2024-03-29T00:35:57;10;10;
45440;PMS5003;31189;38.790;-77.084;2024-03-29T00:38:22;12;8;
45440;PMS5003;31189;38.790;-77.084;2024-03-29T00:40:48;13;11;
45440;PMS5003;31189;38.790;-77.084;2024-03-29T00:43:14;12;9;
45440;PMS5003;31189;38.790;-77.084;2024-03-29T00:45:40;11;8;
45440;PMS5003;31189;38.790;-77.084;2024-03-29T00:48:05;11;9;
45440;PMS5003;31189;38.790;-77.084;2024-03-29T00:50:31;11;9;
45440;PMS5003;31189;38.790;-77.084;2024-03-29T00:52:56;12;11;
45440;PMS5003;31189;38.790;-77.084;2024-03-29T00:55:22;11;11;
45440;PMS5003;31189;38.790;-77.084;2024-03-29T00:57:47;10;9;
45440;PMS5003;31189;38.790;-77.084;2024-03-29T01:00:13;15;11;
45440;PMS5003;31189;38.790;-77.084;2024-03-29T01:02:38;16;12;
45440;PMS5003;31189;38.790;-77.084;2024-03-29T01:05:05;18;11;
45440;PMS5003;31189;38.790;-77.084;2024-03-29T01:07:29;16;11;
45440;PMS5003;31189;38.790;-77.084;2024-03-29T01:09:55;13;12;
45440;PMS5003;31189;38.790;-77.084;2024-03-29T01:12:21;12;12;
45440;PMS5003;31189;38.790;-77.084;2024-03-29T01:14:46;13;11;
45440;PMS5003;31189;38.790;-77.084;2024-03-29T01:17:12;10;10;
45440;PMS5003;31189;38.790;-77.084;2024-03-29T01:19:38;9;9;
45440;PMS5003;31189;38.790;-77.084;2024-03-29T01:22:03;13;11;
45440;PMS5003;31189;38.790;-77.084;2024-03-29T01:24:29;12;11;
45440;PMS5003;31189;38.790;-77.084;2024-03-29T01:26:55;12;11;
45440;PMS5003;31189;38.790;-77.084;2024-03-29T01:29:20;15;12;
45440;PMS5003;31189;38.790;-77.084;2024-03-29T01:31:46;9;9;
45440;PMS5003;31189;38.790;-77.084;2024-03-29T01:34:12;11;11;
45440;PMS5003;31189;38.790;-77.084;2024-03-29T01:36:37;12;12;
45440;PMS5003;31189;38.790;-77.084;2024-03-29T01:39:03;12;10;
45440;PMS5003;31189;38.790;-77.084;2024-03-29T01:41:28;15;12;
45440;PMS5003;31189;38.790;-77.084;2024-03-29T01:43:54;15;11;
45440;PMS5003;31189;38.790;-77.084;2024-03-29T01:46:20;10;10;
45440;PMS5003;31189;38.790;-77.084;2024-03-29T01:48:45;12;12;
45440;PMS5003;31189;38.790;-77.084;2024-03-29T01:51:11;10;10;
45440;PMS5003;31189;38.790;-77.084;2024-03-29T01:53:36;11;9;
45440;PMS5003;31189;38.790;-77.084;2024-03-29T01:56:03;13;10;
45440;PMS5003;31189;38.790;-77.084;2024-03-29T01:58:28;14;10;
45440;PMS5003;31189;38.790;-77.084;2024-03-29T02:00:55;10;9;
45440;PMS5003;31189;38.790;-77.084;2024-03-29T02:03:19;10;10;
45440;PMS5003;31189;38.790;-77.084;2024-03-29T02:05:45;12;10;
45440;PMS5003;31189;38.790;-77.084;2024-03-29T02:08:10;12;12;
45440;PMS5003;31189;38.790;-77.084;2024-03-29T02:10:36;11;9;
45440;PMS5003;31189;38.790;-77.084;2024-03-29T02:13:02;12;11;
45440;PMS5003;31189;38.790;-77.084;2024-03-29T02:15:28;11;11;
45440;PMS5003;31189;38.790;-77.084;2024-03-29T02:17:53;11;11;
45440;PMS5003;31189;38.790;-77.084;2024-03-29T02:20:19;15;15;
45440;PMS5003;31189;38.790;-77.084;2024-03-29T02:22:46;14;13;
45440;PMS5003;31189;38.790;-77.084;2024-03-29T02:25:11;15;15;
45440;PMS5003;31189;38.790;-77.084;2024-03-29T02:27:36;13;10;
45440;PMS5003;31189;38.790;-77.084;2024-03-29T02:30:02;12;12;
45440;PMS5003;31189;38.790;-77.084;2024-03-29T02:32:27;14;11;
45440;PMS5003;31189;38.790;-77.084;2024-03-29T02:34:53;10;10;
45440;PMS5003;31189;38.790;-77.084;2024-03-29T02:37:19;13;12;
45440;PMS5003;31189;38.790;-77.084;2024-03-29T02:39:45;9;9;
45440;PMS5003;31189;38.790;-77.084;2024-03-29T02:42:10;11;10;
45440;PMS5003;31189;38.790;-77.084;2024-03-29T02:44:35;10;7;
45440;PMS5003;31189;38.790;-77.084;2024-03-29T02:47:01;8;8;
45440;PMS5003;31189;38.790;-77.084;2024-03-29T02:49:27;9;9;
45440;PMS5003;31189;38.790;-77.084;2024-03-29T02:51:52;9;8;
45440;PMS5003;31189;38.790;-77.084;2024-03-29T02:54:18;11;8;
45440;PMS5003;31189;38.790;-77.084;2024-03-29T02:56:44;11;7;
45440;PMS5003;31189;38.790;-77.084;2024-03-29T02:59:10;7;7;
45440;PMS5003;31189;38.790;-77.084;2024-03-29T03:01:35;8;7;
45440;PMS5003;31189;38.790;-77.084;2024-03-29T03:04:01;10;8;
45440;PMS5003;31189;38.790;-77.084;2024-03-29T03:06:26;5;5;
45440;PMS5003;31189;38.790;-77.084;2024-03-29T03:08:52;8;6;
45440;PMS5003;31189;38.790;-77.084;2024-03-29T03:11:18;7;6;
45440;PMS5003;31189;38.790;-77.084;2024-03-29T03:13:43;7;6;
45440;PMS5003;31189;38.790;-77.084;2024-03-29T03:16:09;8;6;
45440;PMS5003;31189;38.790;-77.084;2024-03-29T03:18:35;4;4;
45440;PMS5003;31189;38.790;-77.084;2024-03-29T03:21:01;11;7;
45440;PMS5003;31189;38.790;-77.084;2024-03-29T03:23:26;6;6;
45440;PMS5003;31189;38.790;-77.084;2024-03-29T03:25:55;5;5;
45440;PMS5003;31189;38.790;-77.084;2024-03-29T03:28:18;7;4;
45440;PMS5003;31189;38.790;-77.084;2024-03-29T03:30:43;8;5;
45440;PMS5003;31189;38.790;-77.084;2024-03-29T03:33:09;5;4;
45440;PMS5003;31189;38.790;-77.084;2024-03-29T03:35:35;8;5;
45440;PMS5003;31189;38.790;-77.084;2024-03-29T03:38:00;7;6;
45440;PMS5003;31189;38.790;-77.084;2024-03-29T03:40:25;5;4;
45440;PMS5003;31189;38.790;-77.084;2024-03-29T03:42:51;6;5;
45440;PMS5003;31189;38.790;-77.084;2024-03-29T03:45:17;5;5;
45440;PMS5003;31189;38.790;-77.084;2024-03-29T03:47:43;5;5;
45440;PMS5003;31189;38.790;-77.084;2024-03-29T03:50:08;5;5;
45440;PMS5003;31189;38.790;-77.084;2024-03-29T03:52:34;6;5;
45440;PMS5003;31189;38.790;-77.084;2024-03-29T03:55:00;7;5;
45440;PMS5003;31189;38.790;-77.084;2024-03-29T03:57:25;5;5;
45440;PMS5003;31189;38.790;-77.084;2024-03-29T03:59:51;5;5;
45440;PMS5003;31189;38.790;-77.084;2024-03-29T04:02:17;4;4;
45440;PMS5003;31189;38.790;-77.084;2024-03-29T04:04:42;6;5;
45440;PMS5003;31189;38.790;-77.084;2024-03-29T04:07:08;6;6;
45440;PMS5003;31189;38.790;-77.084;2024-03-29T04:09:33;5;5;
45440;PMS5003;31189;38.790;-77.084;2024-03-29T04:11:59;8;5;
45440;PMS5003;31189;38.790;-77.084;2024-03-29T04:14:25;9;5;
45440;PMS5003;31189;38.790;-77.084;2024-03-29T04:16:51;5;5;
45440;PMS5003;31189;38.790;-77.084;2024-03-29T04:19:16;4;4;
45440;PMS5003;31189;38.790;-77.084;2024-03-29T04:21:42;7;4;
45440;PMS5003;31189;38.790;-77.084;2024-03-29T04:24:08;6;5;
45440;PMS5003;31189;38.790;-77.084;2024-03-29T04:26:33;7;6;
45440;PMS5003;31189;38.790;-77.084;2024-03-29T04:28:59;8;5;
45440;PMS5003;31189;38.790;-77.084;2024-03-29T04:31:24;7;5;
45440;PMS5003;31189;38.790;-77.084;2024-03-29T04:33:50;5;5;
45440;PMS5003;31189;38.790;-77.084;2024-03-29T04:36:16;5;5;
45440;PMS5003;31189;38.790;-77.084;2024-03-29T04:38:42;6;5;
45440;PMS5003;31189;38.790;-77.084;2024-03-29T04:41:07;6;6;
45440;PMS5003;31189;38.790;-77.084;2024-03-29T04:43:33;3;3;
45440;PMS5003;31189;38.790;-77.084;2024-03-29T04:46:02;9;5;
45440;PMS5003;31189;38.790;-77.084;2024-03-29T04:48:24;5;5;
45440;PMS5003;31189;38.790;-77.084;2024-03-29T04:50:50;4;4;
45440;PMS5003;31189;38.790;-77.084;2024-03-29T04:53:15;8;4;
45440;PMS5003;31189;38.790;-77.084;2024-03-29T04:55:41;3;3;
45440;PMS5003;31189;38.790;-77.084;2024-03-29T04:58:07;3;3;
45440;PMS5003;31189;38.790;-77.084;2024-03-29T05:00:32;8;5;
45440;PMS5003;31189;38.790;-77.084;2024-03-29T05:02:58;4;4;
45440;PMS5003;31189;38.790;-77.084;2024-03-29T05:05:24;5;3;
45440;PMS5003;31189;38.790;-77.084;2024-03-29T05:07:49;8;6;
45440;PMS5003;31189;38.790;-77.084;2024-03-29T05:10:15;5;5;
45440;PMS5003;31189;38.790;-77.084;2024-03-29T05:12:41;4;4;
45440;PMS5003;31189;38.790;-77.084;2024-03-29T05:15:07;7;5;
45440;PMS5003;31189;38.790;-77.084;2024-03-29T05:17:32;4;2;
45440;PMS5003;31189;38.790;-77.084;2024-03-29T05:19:58;9;4;
45440;PMS5003;31189;38.790;-77.084;2024-03-29T05:22:24;5;4;
45440;PMS5003;31189;38.790;-77.084;2024-03-29T05:24:50;3;3;
45440;PMS5003;31189;38.790;-77.084;2024-03-29T05:27:15;6;5;
45440;PMS5003;31189;38.790;-77.084;2024-03-29T05:29:40;8;6;
45440;PMS5003;31189;38.790;-77.084;2024-03-29T05:32:06;5;5;
45440;PMS5003;31189;38.790;-77.084;2024-03-29T05:34:32;5;5;
45440;PMS5003;31189;38.790;-77.084;2024-03-29T05:36:57;7;6;
45440;PMS5003;31189;38.790;-77.084;2024-03-29T05:39:23;4;4;
45440;PMS5003;31189;38.790;-77.084;2024-03-29T05:41:49;4;3;
45440;PMS5003;31189;38.790;-77.084;2024-03-29T05:44:14;8;5;
45440;PMS5003;31189;38.790;-77.084;2024-03-29T05:46:40;6;5;
45440;PMS5003;31189;38.790;-77.084;2024-03-29T05:49:06;6;4;
45440;PMS5003;31189;38.790;-77.084;2024-03-29T05:51:31;5;3;
45440;PMS5003;31189;38.790;-77.084;2024-03-29T05:53:57;8;6;
45440;PMS5003;31189;38.790;-77.084;2024-03-29T05:56:23;5;5;
45440;PMS5003;31189;38.790;-77.084;2024-03-29T05:58:48;3;3;
45440;PMS5003;31189;38.790;-77.084;2024-03-29T06:01:14;5;4;
45440;PMS5003;31189;38.790;-77.084;2024-03-29T06:03:40;5;4;
45440;PMS5003;31189;38.790;-77.084;2024-03-29T06:06:06;4;4;
45440;PMS5003;31189;38.790;-77.084;2024-03-29T06:08:31;6;6;
45440;PMS5003;31189;38.790;-77.084;2024-03-29T06:10:57;5;5;
45440;PMS5003;31189;38.790;-77.084;2024-03-29T06:13:22;6;4;
45440;PMS5003;31189;38.790;-77.084;2024-03-29T06:15:48;6;5;
45440;PMS5003;31189;38.790;-77.084;2024-03-29T06:18:14;6;6;
45440;PMS5003;31189;38.790;-77.084;2024-03-29T06:20:39;5;4;
45440;PMS5003;31189;38.790;-77.084;2024-03-29T06:23:05;8;5;
45440;PMS5003;31189;38.790;-77.084;2024-03-29T06:25:31;8;5;
45440;PMS5003;31189;38.790;-77.084;2024-03-29T06:27:57;4;4;
45440;PMS5003;31189;38.790;-77.084;2024-03-29T06:30:22;4;3;
45440;PMS5003;31189;38.790;-77.084;2024-03-29T06:32:48;7;6;
45440;PMS5003;31189;38.790;-77.084;2024-03-29T06:35:13;5;5;
45440;PMS5003;31189;38.790;-77.084;2024-03-29T06:37:39;3;3;
45440;PMS5003;31189;38.790;-77.084;2024-03-29T06:40:05;7;5;
45440;PMS5003;31189;38.790;-77.084;2024-03-29T06:42:31;6;5;
45440;PMS5003;31189;38.790;-77.084;2024-03-29T06:44:56;2;2;
45440;PMS5003;31189;38.790;-77.084;2024-03-29T06:47:22;5;3;
45440;PMS5003;31189;38.790;-77.084;2024-03-29T06:49:47;7;7;
45440;PMS5003;31189;38.790;-77.084;2024-03-29T06:52:13;8;5;
45440;PMS5003;31189;38.790;-77.084;2024-03-29T06:54:39;5;4;
45440;PMS5003;31189;38.790;-77.084;2024-03-29T06:57:04;5;4;
45440;PMS5003;31189;38.790;-77.084;2024-03-29T06:59:30;5;5;
45440;PMS5003;31189;38.790;-77.084;2024-03-29T07:01:56;5;4;
45440;PMS5003;31189;38.790;-77.084;2024-03-29T07:04:22;7;5;
45440;PMS5003;31189;38.790;-77.084;2024-03-29T07:06:47;8;5;
45440;PMS5003;31189;38.790;-77.084;2024-03-29T07:09:13;7;6;
45440;PMS5003;31189;38.790;-77.084;2024-03-29T07:11:39;3;3;
45440;PMS5003;31189;38.790;-77.084;2024-03-29T07:14:04;5;5;
45440;PMS5003;31189;38.790;-77.084;2024-03-29T07:16:30;5;5;
45440;PMS5003;31189;38.790;-77.084;2024-03-29T07:18:55;5;4;
45440;PMS5003;31189;38.790;-77.084;2024-03-29T07:21:21;3;3;
45440;PMS5003;31189;38.790;-77.084;2024-03-29T07:23:47;5;5;
45440;PMS5003;31189;38.790;-77.084;2024-03-29T07:26:12;6;4;
45440;PMS5003;31189;38.790;-77.084;2024-03-29T07:28:38;6;5;
45440;PMS5003;31189;38.790;-77.084;2024-03-29T07:31:05;5;5;
45440;PMS5003;31189;38.790;-77.084;2024-03-29T07:33:30;3;3;
45440;PMS5003;31189;38.790;-77.084;2024-03-29T07:35:55;4;4;
45440;PMS5003;31189;38.790;-77.084;2024-03-29T07:38:21;3;3;
45440;PMS5003;31189;38.790;-77.084;2024-03-29T07:40:46;5;5;
45440;PMS5003;31189;38.790;-77.084;2024-03-29T07:43:12;4;4;
45440;PMS5003;31189;38.790;-77.084;2024-03-29T07:45:38;3;3;
45440;PMS5003;31189;38.790;-77.084;2024-03-29T07:48:04;4;4;
45440;PMS5003;31189;38.790;-77.084;2024-03-29T07:50:29;4;4;
45440;PMS5003;31189;38.790;-77.084;2024-03-29T07:52:55;3;3;
45440;PMS5003;31189;38.790;-77.084;2024-03-29T07:55:20;5;4;
45440;PMS5003;31189;38.790;-77.084;2024-03-29T07:57:46;3;3;
45440;PMS5003;31189;38.790;-77.084;2024-03-29T08:00:12;3;3;
45440;PMS5003;31189;38.790;-77.084;2024-03-29T08:02:37;8;4;
45440;PMS5003;31189;38.790;-77.084;2024-03-29T08:05:03;3;3;
45440;PMS5003;31189;38.790;-77.084;2024-03-29T08:07:31;4;4;
45440;PMS5003;31189;38.790;-77.084;2024-03-29T08:09:54;9;6;
45440;PMS5003;31189;38.790;-77.084;2024-03-29T08:12:20;6;4;
45440;PMS5003;31189;38.790;-77.084;2024-03-29T08:14:46;5;5;
45440;PMS5003;31189;38.790;-77.084;2024-03-29T08:17:11;5;5;
45440;PMS5003;31189;38.790;-77.084;2024-03-29T08:19:39;5;4;
45440;PMS5003;31189;38.790;-77.084;2024-03-29T08:22:03;5;3;
45440;PMS5003;31189;38.790;-77.084;2024-03-29T08:24:28;5;5;
45440;PMS5003;31189;38.790;-77.084;2024-03-29T08:26:54;4;4;
45440;PMS5003;31189;38.790;-77.084;2024-03-29T08:29:20;7;5;
45440;PMS5003;31189;38.790;-77.084;2024-03-29T08:31:45;8;6;
45440;PMS5003;31189;38.790;-77.084;2024-03-29T08:34:11;4;4;
45440;PMS5003;31189;38.790;-77.084;2024-03-29T08:36:36;7;4;
45440;PMS5003;31189;38.790;-77.084;2024-03-29T08:39:02;5;5;
45440;PMS5003;31189;38.790;-77.084;2024-03-29T08:41:28;5;4;
45440;PMS5003;31189;38.790;-77.084;2024-03-29T08:43:54;6;4;
45440;PMS5003;31189;38.790;-77.084;2024-03-29T08:46:19;4;4;
45440;PMS5003;31189;38.790;-77.084;2024-03-29T08:48:45;6;4;
45440;PMS5003;31189;38.790;-77.084;2024-03-29T08:51:11;4;4;
45440;PMS5003;31189;38.790;-77.084;2024-03-29T08:53:36;5;5;
45440;PMS5003;31189;38.790;-77.084;2024-03-29T08:56:02;6;4;
45440;PMS5003;31189;38.790;-77.084;2024-03-29T08:58:28;5;4;
45440;PMS5003;31189;38.790;-77.084;2024-03-29T09:00:54;5;4;
45440;PMS5003;31189;38.790;-77.084;2024-03-29T09:03:19;10;5;
45440;PMS5003;31189;38.790;-77.084;2024-03-29T09:05:45;3;3;
45440;PMS5003;31189;38.790;-77.084;2024-03-29T09:08:10;10;5;
45440;PMS5003;31189;38.790;-77.084;2024-03-29T09:10:36;4;4;
45440;PMS5003;31189;38.790;-77.084;2024-03-29T09:13:02;7;6;
45440;PMS5003;31189;38.790;-77.084;2024-03-29T09:15:28;7;6;
45440;PMS5003;31189;38.790;-77.084;2024-03-29T09:17:53;5;5;
45440;PMS5003;31189;38.790;-77.084;2024-03-29T09:20:19;5;4;
45440;PMS5003;31189;38.790;-77.084;2024-03-29T09:22:45;6;5;
45440;PMS5003;31189;38.790;-77.084;2024-03-29T09:25:10;8;5;
45440;PMS5003;31189;38.790;-77.084;2024-03-29T09:27:36;4;4;
45440;PMS5003;31189;38.790;-77.084;2024-03-29T09:30:02;5;4;
45440;PMS5003;31189;38.790;-77.084;2024-03-29T09:32:27;5;4;
45440;PMS5003;31189;38.790;-77.084;2024-03-29T09:34:53;6;5;
45440;PMS5003;31189;38.790;-77.084;2024-03-29T09:37:19;5;5;
45440;PMS5003;31189;38.790;-77.084;2024-03-29T09:39:44;5;4;
45440;PMS5003;31189;38.790;-77.084;2024-03-29T09:42:11;8;6;
45440;PMS5003;31189;38.790;-77.084;2024-03-29T09:44:36;5;4;
45440;PMS5003;31189;38.790;-77.084;2024-03-29T09:47:02;7;5;
45440;PMS5003;31189;38.790;-77.084;2024-03-29T09:49:27;7;5;
45440;PMS5003;31189;38.790;-77.084;2024-03-29T09:51:53;6;6;
45440;PMS5003;31189;38.790;-77.084;2024-03-29T09:54:19;5;5;
45440;PMS5003;31189;38.790;-77.084;2024-03-29T09:56:44;5;5;
45440;PMS5003;31189;38.790;-77.084;2024-03-29T09:59:10;6;6;
45440;PMS5003;31189;38.790;-77.084;2024-03-29T10:01:36;6;5;
45440;PMS5003;31189;38.790;-77.084;2024-03-29T10:04:01;8;5;
45440;PMS5003;31189;38.790;-77.084;2024-03-29T10:06:27;8;6;
45440;PMS5003;31189;38.790;-77.084;2024-03-29T10:08:53;8;4;
45440;PMS5003;31189;38.790;-77.084;2024-03-29T10:11:18;5;5;
45440;PMS5003;31189;38.790;-77.084;2024-03-29T10:13:44;7;5;
45440;PMS5003;31189;38.790;-77.084;2024-03-29T10:16:10;5;5;
45440;PMS5003;31189;38.790;-77.084;2024-03-29T10:18:35;7;6;
45440;PMS5003;31189;38.790;-77.084;2024-03-29T10:21:01;5;3;
45440;PMS5003;31189;38.790;-77.084;2024-03-29T10:23:27;6;6;
45440;PMS5003;31189;38.790;-77.084;2024-03-29T10:25:52;6;4;
45440;PMS5003;31189;38.790;-77.084;2024-03-29T10:28:18;4;3;
45440;PMS5003;31189;38.790;-77.084;2024-03-29T10:30:44;7;7;
45440;PMS5003;31189;38.790;-77.084;2024-03-29T10:33:09;7;5;
45440;PMS5003;31189;38.790;-77.084;2024-03-29T10:35:35;5;4;
45440;PMS5003;31189;38.790;-77.084;2024-03-29T10:38:02;6;5;
45440;PMS5003;31189;38.790;-77.084;2024-03-29T10:40:27;5;5;
45440;PMS5003;31189;38.790;-77.084;2024-03-29T10:42:52;6;5;
45440;PMS5003;31189;38.790;-77.084;2024-03-29T10:45:18;6;5;
45440;PMS5003;31189;38.790;-77.084;2024-03-29T10:47:43;7;5;
45440;PMS5003;31189;38.790;-77.084;2024-03-29T10:50:10;6;5;
45440;PMS5003;31189;38.790;-77.084;2024-03-29T10:52:35;5;5;
45440;PMS5003;31189;38.790;-77.084;2024-03-29T10:55:01;6;5;
45440;PMS5003;31189;38.790;-77.084;2024-03-29T10:57:26;6;5;
45440;PMS5003;31189;38.790;-77.084;2024-03-29T10:59:56;6;6;
45440;PMS5003;31189;38.790;-77.084;2024-03-29T11:02:19;6;5;
45440;PMS5003;31189;38.790;-77.084;2024-03-29T11:04:43;7;7;
45440;PMS5003;31189;38.790;-77.084;2024-03-29T11:07:11;5;3;
45440;PMS5003;31189;38.790;-77.084;2024-03-29T11:09:35;7;5;
45440;PMS5003;31189;38.790;-77.084;2024-03-29T11:12:01;10;6;
45440;PMS5003;31189;38.790;-77.084;2024-03-29T11:14:26;5;5;
45440;PMS5003;31189;38.790;-77.084;2024-03-29T11:16:51;5;5;
45440;PMS5003;31189;38.790;-77.084;2024-03-29T11:19:17;8;5;
45440;PMS5003;31189;38.790;-77.084;2024-03-29T11:21:43;7;6;
45440;PMS5003;31189;38.790;-77.084;2024-03-29T11:24:10;7;7;
45440;PMS5003;31189;38.790;-77.084;2024-03-29T11:26:34;6;6;
45440;PMS5003;31189;38.790;-77.084;2024-03-29T11:29:00;7;7;
45440;PMS5003;31189;38.790;-77.084;2024-03-29T11:31:25;4;4;
45440;PMS5003;31189;38.790;-77.084;2024-03-29T11:33:51;7;7;
45440;PMS5003;31189;38.790;-77.084;2024-03-29T11:36:17;7;6;
45440;PMS5003;31189;38.790;-77.084;2024-03-29T11:38:43;6;6;
45440;PMS5003;31189;38.790;-77.084;2024-03-29T11:41:10;6;5;
45440;PMS5003;31189;38.790;-77.084;2024-03-29T11:43:34;8;6;
45440;PMS5003;31189;38.790;-77.084;2024-03-29T11:46:00;5;5;
45440;PMS5003;31189;38.790;-77.084;2024-03-29T11:48:25;7;6;
45440;PMS5003;31189;38.790;-77.084;2024-03-29T11:50:51;6;5;
45440;PMS5003;31189;38.790;-77.084;2024-03-29T11:53:16;6;4;
45440;PMS5003;31189;38.790;-77.084;2024-03-29T11:55:42;5;5;
45440;PMS5003;31189;38.790;-77.084;2024-03-29T11:58:08;7;6;
45440;PMS5003;31189;38.790;-77.084;2024-03-29T12:00:33;8;5;
45440;PMS5003;31189;38.790;-77.084;2024-03-29T12:02:59;9;7;
45440;PMS5003;31189;38.790;-77.084;2024-03-29T12:05:25;10;8;
45440;PMS5003;31189;38.790;-77.084;2024-03-29T12:07:51;10;8;
45440;PMS5003;31189;38.790;-77.084;2024-03-29T12:10:17;12;9;
45440;PMS5003;31189;38.790;-77.084;2024-03-29T12:12:42;9;8;
45440;PMS5003;31189;38.790;-77.084;2024-03-29T12:15:08;8;8;
45440;PMS5003;31189;38.790;-77.084;2024-03-29T12:17:33;9;9;
45440;PMS5003;31189;38.790;-77.084;2024-03-29T12:19:59;10;8;
45440;PMS5003;31189;38.790;-77.084;2024-03-29T12:22:25;10;9;
45440;PMS5003;31189;38.790;-77.084;2024-03-29T12:24:50;8;8;
45440;PMS5003;31189;38.790;-77.084;2024-03-29T12:27:16;7;7;
45440;PMS5003;31189;38.790;-77.084;2024-03-29T12:29:41;8;8;
45440;PMS5003;31189;38.790;-77.084;2024-03-29T12:32:07;10;9;
45440;PMS5003;31189;38.790;-77.084;2024-03-29T12:34:32;14;12;
45440;PMS5003;31189;38.790;-77.084;2024-03-29T12:36:58;14;10;
45440;PMS5003;31189;38.790;-77.084;2024-03-29T12:39:23;24;16;
45440;PMS5003;31189;38.790;-77.084;2024-03-29T12:41:49;18;17;
45440;PMS5003;31189;38.790;-77.084;2024-03-29T12:44:15;20;16;
45440;PMS5003;31189;38.790;-77.084;2024-03-29T12:46:40;15;13;
45440;PMS5003;31189;38.790;-77.084;2024-03-29T12:49:06;13;13;
45440;PMS5003;31189;38.790;-77.084;2024-03-29T12:51:31;20;19;
45440;PMS5003;31189;38.790;-77.084;2024-03-29T12:54:00;28;15;
45440;PMS5003;31189;38.790;-77.084;2024-03-29T12:56:22;18;16;
45440;PMS5003;31189;38.790;-77.084;2024-03-29T12:58:48;21;19;
45440;PMS5003;31189;38.790;-77.084;2024-03-29T13:01:13;20;19;
45440;PMS5003;31189;38.790;-77.084;2024-03-29T13:03:39;17;17;
45440;PMS5003;31189;38.790;-77.084;2024-03-29T13:06:05;16;16;
45440;PMS5003;31189;38.790;-77.084;2024-03-29T13:08:30;19;16;
45440;PMS5003;31189;38.790;-77.084;2024-03-29T13:10:56;17;13;
45440;PMS5003;31189;38.790;-77.084;2024-03-29T13:13:21;20;16;
45440;PMS5003;31189;38.790;-77.084;2024-03-29T13:15:47;17;17;
45440;PMS5003;31189;38.790;-77.084;2024-03-29T13:18:12;17;17;
45440;PMS5003;31189;38.790;-77.084;2024-03-29T13:20:38;22;21;
45440;PMS5003;31189;38.790;-77.084;2024-03-29T13:23:03;23;20;
45440;PMS5003;31189;38.790;-77.084;2024-03-29T13:25:28;21;16;
45440;PMS5003;31189;38.790;-77.084;2024-03-29T13:27:53;18;16;
45440;PMS5003;31189;38.790;-77.084;2024-03-29T13:30:19;20;19;
45440;PMS5003;31189;38.790;-77.084;2024-03-29T13:32:44;24;20;
45440;PMS5003;31189;38.790;-77.084;2024-03-29T13:35:09;29;20;
45440;PMS5003;31189;38.790;-77.084;2024-03-29T13:37:34;26;20;
45440;PMS5003;31189;38.790;-77.084;2024-03-29T13:40:00;16;16;
45440;PMS5003;31189;38.790;-77.084;2024-03-29T13:42:25;19;16;
45440;PMS5003;31189;38.790;-77.084;2024-03-29T13:44:51;22;19;
45440;PMS5003;31189;38.790;-77.084;2024-03-29T13:47:16;23;20;
45440;PMS5003;31189;38.790;-77.084;2024-03-29T13:49:42;31;19;
45440;PMS5003;31189;38.790;-77.084;2024-03-29T13:52:07;26;21;
45440;PMS5003;31189;38.790;-77.084;2024-03-29T13:54:33;23;21;
45440;PMS5003;31189;38.790;-77.084;2024-03-29T13:56:58;21;19;
45440;PMS5003;31189;38.790;-77.084;2024-03-29T13:59:23;22;21;
45440;PMS5003;31189;38.790;-77.084;2024-03-29T14:01:49;23;20;
45440;PMS5003;31189;38.790;-77.084;2024-03-29T14:04:14;27;22;
45440;PMS5003;31189;38.790;-77.084;2024-03-29T14:06:40;39;26;
45440;PMS5003;31189;38.790;-77.084;2024-03-29T14:09:05;26;25;
45440;PMS5003;31189;38.790;-77.084;2024-03-29T14:11:30;28;22;
45440;PMS5003;31189;38.790;-77.084;2024-03-29T14:13:55;25;24;
45440;PMS5003;31189;38.790;-77.084;2024-03-29T14:16:21;38;25;
45440;PMS5003;31189;38.790;-77.084;2024-03-29T14:18:46;28;19;
45440;PMS5003;31189;38.790;-77.084;2024-03-29T14:21:12;28;24;
45440;PMS5003;31189;38.790;-77.084;2024-03-29T14:23:37;29;23;
45440;PMS5003;31189;38.790;-77.084;2024-03-29T14:26:02;25;23;
45440;PMS5003;31189;38.790;-77.084;2024-03-29T14:28:28;25;24;
45440;PMS5003;31189;38.790;-77.084;2024-03-29T14:30:53;30;24;
45440;PMS5003;31189;38.790;-77.084;2024-03-29T14:33:18;25;24;
45440;PMS5003;31189;38.790;-77.084;2024-03-29T14:35:44;24;22;
45440;PMS5003;31189;38.790;-77.084;2024-03-29T14:38:09;26;24;
45440;PMS5003;31189;38.790;-77.084;2024-03-29T14:40:34;23;21;
45440;PMS5003;31189;38.790;-77.084;2024-03-29T14:42:59;23;23;
45440;PMS5003;31189;38.790;-77.084;2024-03-29T14:45:24;29;27;
45440;PMS5003;31189;38.790;-77.084;2024-03-29T14:47:50;25;24;
45440;PMS5003;31189;38.790;-77.084;2024-03-29T14:50:15;30;23;
45440;PMS5003;31189;38.790;-77.084;2024-03-29T14:52:40;22;20;
45440;PMS5003;31189;38.790;-77.084;2024-03-29T14:55:05;29;21;
45440;PMS5003;31189;38.790;-77.084;2024-03-29T14:57:30;24;22;
45440;PMS5003;31189;38.790;-77.084;2024-03-29T14:59:56;22;21;
45440;PMS5003;31189;38.790;-77.084;2024-03-29T15:02:21;30;19;
45440;PMS5003;31189;38.790;-77.084;2024-03-29T15:04:47;21;20;
45440;PMS5003;31189;38.790;-77.084;2024-03-29T15:07:12;25;21;
45440;PMS5003;31189;38.790;-77.084;2024-03-29T15:09:37;24;20;
45440;PMS5003;31189;38.790;-77.084;2024-03-29T15:12:03;28;21;
45440;PMS5003;31189;38.790;-77.084;2024-03-29T15:14:29;26;22;
45440;PMS5003;31189;38.790;-77.084;2024-03-29T15:16:54;27;23;
45440;PMS5003;31189;38.790;-77.084;2024-03-29T15:19:20;23;21;
45440;PMS5003;31189;38.790;-77.084;2024-03-29T15:21:45;20;18;
45440;PMS5003;31189;38.790;-77.084;2024-03-29T15:24:10;27;24;
45440;PMS5003;31189;38.790;-77.084;2024-03-29T15:26:35;28;23;
45440;PMS5003;31189;38.790;-77.084;2024-03-29T15:29:00;28;22;
45440;PMS5003;31189;38.790;-77.084;2024-03-29T15:31:25;23;19;
45440;PMS5003;31189;38.790;-77.084;2024-03-29T15:33:52;18;18;
45440;PMS5003;31189;38.790;-77.084;2024-03-29T15:36:16;22;18;
45440;PMS5003;31189;38.790;-77.084;2024-03-29T15:38:42;22;21;
45440;PMS5003;31189;38.790;-77.084;2024-03-29T15:41:07;23;20;
45440;PMS5003;31189;38.790;-77.084;2024-03-29T15:43:32;21;21;
45440;PMS5003;31189;38.790;-77.084;2024-03-29T15:45:57;20;18;
45440;PMS5003;31189;38.790;-77.084;2024-03-29T15:48:23;31;20;
45440;PMS5003;31189;38.790;-77.084;2024-03-29T15:50:48;24;19;
45440;PMS5003;31189;38.790;-77.084;2024-03-29T15:53:14;19;18;
45440;PMS5003;31189;38.790;-77.084;2024-03-29T15:55:41;21;18;